sensor_id;sensor_type;location;lat;lon;timestamp;pressure;altitude;pressure_sealevel;temperature;humidity
46583;BME280;32309;48.858;8.252;2023-04-19T00:00:30;100876.56;;;10.18;74.94
46583;BME280;32309;48.858;8.252;2023-04-19T00:02:30;100880.97;;;10.15;75.19
46583;BME280;32309;48.858;8.252;2023-04-19T00:04:33;100875.72;;;10.17;75.01
46583;BME280;32309;48.858;8.252;2023-04-19T00:06:33;100878.38;;;10.15;75.08
46583;BME280;32309;48.858;8.252;2023-04-19T00:08:34;100881.78;;;10.16;75.22
46583;BME280;32309;48.858;8.252;2023-04-19T00:10:34;100871.38;;;10.18;75.38
46583;BME280;32309;48.858;8.252;2023-04-19T00:12:34;100875.72;;;10.17;74.62
46583;BME280;32309;48.858;8.252;2023-04-19T00:14:35;100881.88;;;10.14;75.02
46583;BME280;32309;48.858;8.252;2023-04-19T00:16:35;100873.19;;;10.15;74.57
46583;BME280;32309;48.858;8.252;2023-04-19T00:18:35;100871.72;;;10.10;74.63
46583;BME280;32309;48.858;8.252;2023-04-19T00:20:37;100868.44;;;10.06;75.07
46583;BME280;32309;48.858;8.252;2023-04-19T00:22:38;100872.47;;;10.12;74.95
46583;BME280;32309;48.858;8.252;2023-04-19T00:24:39;100871.50;;;10.14;74.32
46583;BME280;32309;48.858;8.252;2023-04-19T00:26:39;100860.25;;;10.15;74.89
46583;BME280;32309;48.858;8.252;2023-04-19T00:28:40;100864.72;;;10.12;74.50
46583;BME280;32309;48.858;8.252;2023-04-19T00:30:40;100864.59;;;10.15;74.34
46583;BME280;32309;48.858;8.252;2023-04-19T00:32:40;100864.03;;;10.08;74.54
46583;BME280;32309;48.858;8.252;2023-04-19T00:34:41;100865.84;;;10.06;74.46
46583;BME280;32309;48.858;8.252;2023-04-19T00:36:41;100864.16;;;10.05;75.09
46583;BME280;32309;48.858;8.252;2023-04-19T00:38:41;100857.91;;;10.09;74.58
46583;BME280;32309;48.858;8.252;2023-04-19T00:40:42;100858.06;;;10.06;74.88
46583;BME280;32309;48.858;8.252;2023-04-19T00:42:42;100863.31;;;10.05;74.53
46583;BME280;32309;48.858;8.252;2023-04-19T00:44:43;100862.13;;;10.12;74.95
46583;BME280;32309;48.858;8.252;2023-04-19T00:46:43;100862.19;;;10.10;74.59
46583;BME280;32309;48.858;8.252;2023-04-19T00:48:44;100858.91;;;10.07;75.07
46583;BME280;32309;48.858;8.252;2023-04-19T00:50:44;100860.81;;;10.03;74.77
46583;BME280;32309;48.858;8.252;2023-04-19T00:52:45;100855.69;;;10.02;74.85
46583;BME280;32309;48.858;8.252;2023-04-19T00:54:45;100853.16;;;10.00;75.18
46583;BME280;32309;48.858;8.252;2023-04-19T00:56:46;100856.47;;;10.04;74.82
46583;BME280;32309;48.858;8.252;2023-04-19T00:58:46;100851.34;;;10.02;74.89
46583;BME280;32309;48.858;8.252;2023-04-19T01:00:47;100851.34;;;10.02;74.78
46583;BME280;32309;48.858;8.252;2023-04-19T01:02:48;100853.31;;;9.97;75.42
46583;BME280;32309;48.858;8.252;2023-04-19T01:04:48;100854.28;;;9.94;75.60
46583;BME280;32309;48.858;8.252;2023-04-19T01:06:49;100847.31;;;9.96;75.06
46583;BME280;32309;48.858;8.252;2023-04-19T01:08:50;100847.31;;;9.96;75.35
46583;BME280;32309;48.858;8.252;2023-04-19T01:10:50;100841.56;;;9.90;76.30
46583;BME280;32309;48.858;8.252;2023-04-19T01:12:50;100848.41;;;9.91;75.95
46583;BME280;32309;48.858;8.252;2023-04-19T01:14:50;100845.47;;;9.98;75.67
46583;BME280;32309;48.858;8.252;2023-04-19T01:16:51;100835.03;;;10.00;74.81
46583;BME280;32309;48.858;8.252;2023-04-19T01:18:52;100844.09;;;9.91;75.43
46583;BME280;32309;48.858;8.252;2023-04-19T01:20:52;100838.97;;;9.90;76.09
46583;BME280;32309;48.858;8.252;2023-04-19T01:22:53;100838.28;;;9.86;75.75
46583;BME280;32309;48.858;8.252;2023-04-19T01:24:53;100833.09;;;9.86;75.75
46583;BME280;32309;48.858;8.252;2023-04-19T01:26:53;100822.41;;;9.94;75.02
46583;BME280;32309;48.858;8.252;2023-04-19T01:28:54;100831.97;;;9.92;75.41
46583;BME280;32309;48.858;8.252;2023-04-19T01:30:54;100824.44;;;9.87;75.61
46583;BME280;32309;48.858;8.252;2023-04-19T01:32:54;100824.44;;;9.87;75.77
46583;BME280;32309;48.858;8.252;2023-04-19T01:34:55;100825.53;;;9.81;75.93
46583;BME280;32309;48.858;8.252;2023-04-19T01:36:55;100828.75;;;9.87;76.00
46583;BME280;32309;48.858;8.252;2023-04-19T01:38:55;100828.41;;;9.94;74.75
46583;BME280;32309;48.858;8.252;2023-04-19T01:40:56;100827.91;;;9.86;75.77
46583;BME280;32309;48.858;8.252;2023-04-19T01:42:56;100826.78;;;9.92;75.62
46583;BME280;32309;48.858;8.252;2023-04-19T01:44:56;100820.84;;;9.90;75.48
46583;BME280;32309;48.858;8.252;2023-04-19T01:46:56;100819.53;;;9.81;75.66
46583;BME280;32309;48.858;8.252;2023-04-19T01:48:57;100816.06;;;9.80;75.72
46583;BME280;32309;48.858;8.252;2023-04-19T01:50:57;100819.72;;;9.76;76.50
46583;BME280;32309;48.858;8.252;2023-04-19T01:52:57;100819.06;;;9.71;76.42
46583;BME280;32309;48.858;8.252;2023-04-19T01:54:58;100815.09;;;9.64;77.08
46583;BME280;32309;48.858;8.252;2023-04-19T01:56:58;100821.09;;;9.64;76.53
46583;BME280;32309;48.858;8.252;2023-04-19T01:58:58;100825.81;;;9.75;76.33
46583;BME280;32309;48.858;8.252;2023-04-19T02:00:59;100816.63;;;9.68;76.23
46583;BME280;32309;48.858;8.252;2023-04-19T02:02:59;100821.19;;;9.63;76.59
46583;BME280;32309;48.858;8.252;2023-04-19T02:04:59;100820.47;;;9.59;76.98
46583;BME280;32309;48.858;8.252;2023-04-19T02:06:59;100819.91;;;9.53;77.39
46583;BME280;32309;48.858;8.252;2023-04-19T02:09:00;100816.63;;;9.49;77.53
46583;BME280;32309;48.858;8.252;2023-04-19T02:11:04;100817.59;;;9.46;77.22
46583;BME280;32309;48.858;8.252;2023-04-19T02:13:06;100824.44;;;9.47;77.97
46583;BME280;32309;48.858;8.252;2023-04-19T02:15:07;100826.06;;;9.50;78.55
46583;BME280;32309;48.858;8.252;2023-04-19T02:17:07;100828.72;;;9.48;78.26
46583;BME280;32309;48.858;8.252;2023-04-19T02:19:07;100817.53;;;9.48;78.12
46583;BME280;32309;48.858;8.252;2023-04-19T02:21:08;100816.69;;;9.47;78.57
46583;BME280;32309;48.858;8.252;2023-04-19T02:23:09;100820.06;;;9.49;78.58
46583;BME280;32309;48.858;8.252;2023-04-19T02:25:10;100811.38;;;9.51;78.62
46583;BME280;32309;48.858;8.252;2023-04-19T02:27:10;100818.25;;;9.52;78.84
46583;BME280;32309;48.858;8.252;2023-04-19T02:29:10;100817.38;;;9.51;78.00
46583;BME280;32309;48.858;8.252;2023-04-19T02:31:11;100814.81;;;9.51;78.92
46583;BME280;32309;48.858;8.252;2023-04-19T02:33:11;100813.97;;;9.51;78.39
46583;BME280;32309;48.858;8.252;2023-04-19T02:35:11;100808.81;;;9.51;78.41
46583;BME280;32309;48.858;8.252;2023-04-19T02:37:11;100812.22;;;9.51;78.45
46583;BME280;32309;48.858;8.252;2023-04-19T02:39:12;100813.97;;;9.51;78.65
46583;BME280;32309;48.858;8.252;2023-04-19T02:41:12;100813.81;;;9.54;79.37
46583;BME280;32309;48.858;8.252;2023-04-19T02:43:12;100806.06;;;9.54;79.28
46583;BME280;32309;48.858;8.252;2023-04-19T02:45:12;100811.31;;;9.52;79.36
46583;BME280;32309;48.858;8.252;2023-04-19T02:47:13;100810.47;;;9.52;79.02
46583;BME280;32309;48.858;8.252;2023-04-19T02:49:13;100809.63;;;9.51;78.46
46583;BME280;32309;48.858;8.252;2023-04-19T02:51:14;100813.00;;;9.53;78.86
46583;BME280;32309;48.858;8.252;2023-04-19T02:53:15;100806.97;;;9.53;78.84
46583;BME280;32309;48.858;8.252;2023-04-19T02:55:16;100807.81;;;9.53;78.94
46583;BME280;32309;48.858;8.252;2023-04-19T02:57:16;100811.50;;;9.47;79.33
46583;BME280;32309;48.858;8.252;2023-04-19T02:59:16;100804.78;;;9.43;80.36
46583;BME280;32309;48.858;8.252;2023-04-19T03:01:16;100801.44;;;9.41;79.70
46583;BME280;32309;48.858;8.252;2023-04-19T03:03:17;100805.72;;;9.42;79.50
46583;BME280;32309;48.858;8.252;2023-04-19T03:05:17;100802.34;;;9.40;79.39
46583;BME280;32309;48.858;8.252;2023-04-19T03:07:17;100800.53;;;9.42;79.77
46583;BME280;32309;48.858;8.252;2023-04-19T03:09:18;100800.59;;;9.41;79.84
46583;BME280;32309;48.858;8.252;2023-04-19T03:11:18;100800.72;;;9.38;79.61
46583;BME280;32309;48.858;8.252;2023-04-19T03:13:18;100798.38;;;9.33;79.86
46583;BME280;32309;48.858;8.252;2023-04-19T03:15:18;100796.69;;;9.32;80.06
46583;BME280;32309;48.858;8.252;2023-04-19T03:17:19;100800.09;;;9.32;80.37
46583;BME280;32309;48.858;8.252;2023-04-19T03:19:19;100803.66;;;9.30;80.04
46583;BME280;32309;48.858;8.252;2023-04-19T03:21:20;100798.63;;;9.27;79.75
46583;BME280;32309;48.858;8.252;2023-04-19T03:23:20;100802.94;;;9.26;80.76
46583;BME280;32309;48.858;8.252;2023-04-19T03:25:20;100799.72;;;9.21;80.33
46583;BME280;32309;48.858;8.252;2023-04-19T03:27:21;100796.53;;;9.14;80.27
46583;BME280;32309;48.858;8.252;2023-04-19T03:29:21;100798.94;;;9.19;80.36
46583;BME280;32309;48.858;8.252;2023-04-19T03:31:21;100798.22;;;9.15;80.10
46583;BME280;32309;48.858;8.252;2023-04-19T03:33:22;100793.91;;;9.16;80.03
46583;BME280;32309;48.858;8.252;2023-04-19T03:35:22;100795.88;;;9.11;79.88
46583;BME280;32309;48.858;8.252;2023-04-19T03:37:25;100793.19;;;9.12;79.60
46583;BME280;32309;48.858;8.252;2023-04-19T03:39:25;100794.19;;;9.10;79.30
46583;BME280;32309;48.858;8.252;2023-04-19T03:41:27;100786.50;;;9.08;79.08
46583;BME280;32309;48.858;8.252;2023-04-19T03:43:28;100791.66;;;9.08;79.00
46583;BME280;32309;48.858;8.252;2023-04-19T03:45:28;100795.06;;;9.09;78.91
46583;BME280;32309;48.858;8.252;2023-04-19T03:47:29;100787.25;;;9.10;78.66
46583;BME280;32309;48.858;8.252;2023-04-19T03:49:29;100788.94;;;9.11;78.98
46583;BME280;32309;48.858;8.252;2023-04-19T03:51:30;100782.31;;;9.25;77.70
46583;BME280;32309;48.858;8.252;2023-04-19T03:53:30;100787.72;;;9.20;77.66
46583;BME280;32309;48.858;8.252;2023-04-19T03:55:30;100776.16;;;9.08;78.08
46583;BME280;32309;48.858;8.252;2023-04-19T03:57:31;100778.84;;;9.05;78.44
46583;BME280;32309;48.858;8.252;2023-04-19T03:59:31;100777.03;;;9.07;78.24
46583;BME280;32309;48.858;8.252;2023-04-19T04:01:34;100778.22;;;9.00;78.26
46583;BME280;32309;48.858;8.252;2023-04-19T04:03:34;100775.66;;;9.00;78.97
46583;BME280;32309;48.858;8.252;2023-04-19T04:05:35;100776.53;;;8.99;78.81
46583;BME280;32309;48.858;8.252;2023-04-19T04:07:35;100775.25;;;8.89;78.87
46583;BME280;32309;48.858;8.252;2023-04-19T04:09:35;100776.94;;;8.90;79.19
46583;BME280;32309;48.858;8.252;2023-04-19T04:11:36;100781.91;;;8.94;78.63
46583;BME280;32309;48.858;8.252;2023-04-19T04:13:36;100776.88;;;8.91;79.28
46583;BME280;32309;48.858;8.252;2023-04-19T04:15:36;100775.31;;;8.87;79.20
46583;BME280;32309;48.858;8.252;2023-04-19T04:17:36;100773.69;;;8.85;79.64
46583;BME280;32309;48.858;8.252;2023-04-19T04:19:37;100775.38;;;8.86;79.63
46583;BME280;32309;48.858;8.252;2023-04-19T04:21:37;100783.06;;;8.87;79.73
46583;BME280;32309;48.858;8.252;2023-04-19T04:23:37;100775.25;;;8.89;79.00
46583;BME280;32309;48.858;8.252;2023-04-19T04:25:38;100781.47;;;8.85;79.33
46583;BME280;32309;48.858;8.252;2023-04-19T04:27:38;100783.06;;;8.87;79.39
46583;BME280;32309;48.858;8.252;2023-04-19T04:29:39;100778.72;;;8.88;79.53
46583;BME280;32309;48.858;8.252;2023-04-19T04:31:40;100786.63;;;8.85;79.58
46583;BME280;32309;48.858;8.252;2023-04-19T04:33:40;100778.66;;;8.89;79.24
46583;BME280;32309;48.858;8.252;2023-04-19T04:35:40;100785.59;;;8.89;79.03
46583;BME280;32309;48.858;8.252;2023-04-19T04:37:42;100786.31;;;8.92;78.88
46583;BME280;32309;48.858;8.252;2023-04-19T04:39:42;100783.50;;;8.97;78.83
46583;BME280;32309;48.858;8.252;2023-04-19T04:41:44;100787.13;;;8.93;79.34
46583;BME280;32309;48.858;8.252;2023-04-19T04:43:45;100778.16;;;9.02;78.21
46583;BME280;32309;48.858;8.252;2023-04-19T04:45:50;100787.97;;;8.93;78.65
46583;BME280;32309;48.858;8.252;2023-04-19T04:47:50;100784.47;;;8.94;79.00
46583;BME280;32309;48.858;8.252;2023-04-19T04:49:51;100784.56;;;8.93;78.41
46583;BME280;32309;48.858;8.252;2023-04-19T04:51:51;100789.94;;;8.88;78.86
46583;BME280;32309;48.858;8.252;2023-04-19T04:53:52;100784.81;;;8.87;78.95
46583;BME280;32309;48.858;8.252;2023-04-19T04:55:55;100787.91;;;8.95;78.84
46583;BME280;32309;48.858;8.252;2023-04-19T04:57:55;100784.47;;;8.94;78.87
46583;BME280;32309;48.858;8.252;2023-04-19T04:59:55;100791.47;;;8.92;79.23
46583;BME280;32309;48.858;8.252;2023-04-19T05:01:56;100788.69;;;8.97;78.90
46583;BME280;32309;48.858;8.252;2023-04-19T05:03:56;100786.16;;;8.95;78.96
46583;BME280;32309;48.858;8.252;2023-04-19T05:05:56;100787.13;;;8.93;78.81
46583;BME280;32309;48.858;8.252;2023-04-19T05:07:57;100782.94;;;8.90;79.06
46583;BME280;32309;48.858;8.252;2023-04-19T05:09:57;100782.75;;;8.95;78.48
46583;BME280;32309;48.858;8.252;2023-04-19T05:11:57;100779.19;;;8.97;78.67
46583;BME280;32309;48.858;8.252;2023-04-19T05:13:57;100784.41;;;8.96;78.90
46583;BME280;32309;48.858;8.252;2023-04-19T05:15:58;100788.97;;;8.91;79.01
46583;BME280;32309;48.858;8.252;2023-04-19T05:17:58;100781.72;;;8.99;78.80
46583;BME280;32309;48.858;8.252;2023-04-19T05:19:59;100786.88;;;8.99;78.05
46583;BME280;32309;48.858;8.252;2023-04-19T05:21:59;100789.72;;;8.93;78.89
46583;BME280;32309;48.858;8.252;2023-04-19T05:24:00;100778.66;;;8.89;79.01
46583;BME280;32309;48.858;8.252;2023-04-19T05:26:00;100781.78;;;8.97;78.61
46583;BME280;32309;48.858;8.252;2023-04-19T05:28:00;100790.53;;;8.93;79.33
46583;BME280;32309;48.858;8.252;2023-04-19T05:30:02;100787.00;;;8.96;78.83
46583;BME280;32309;48.858;8.252;2023-04-19T05:34:38;100791.09;;;9.02;78.36
46583;BME280;32309;48.858;8.252;2023-04-19T05:36:38;100793.09;;;8.95;78.64
46583;BME280;32309;48.858;8.252;2023-04-19T05:38:39;100791.25;;;8.97;78.86
46583;BME280;32309;48.858;8.252;2023-04-19T05:40:39;100792.06;;;8.99;78.89
46583;BME280;32309;48.858;8.252;2023-04-19T05:42:39;100788.28;;;9.06;78.43
46583;BME280;32309;48.858;8.252;2023-04-19T05:44:39;100786.56;;;9.07;78.32
46583;BME280;32309;48.858;8.252;2023-04-19T05:46:40;100792.75;;;9.03;78.43
46583;BME280;32309;48.858;8.252;2023-04-19T05:48:40;100791.72;;;9.07;78.34
46583;BME280;32309;48.858;8.252;2023-04-19T05:50:40;100792.50;;;9.09;78.63
46583;BME280;32309;48.858;8.252;2023-04-19T05:52:41;100789.06;;;9.08;78.62
46583;BME280;32309;48.858;8.252;2023-04-19T05:54:41;100791.50;;;9.11;78.10
46583;BME280;32309;48.858;8.252;2023-04-19T05:56:43;100803.34;;;9.17;78.03
46583;BME280;32309;48.858;8.252;2023-04-19T05:58:43;100800.63;;;9.20;77.39
46583;BME280;32309;48.858;8.252;2023-04-19T06:00:44;100803.22;;;9.20;77.52
46583;BME280;32309;48.858;8.252;2023-04-19T06:02:44;100802.25;;;9.23;77.35
46583;BME280;32309;48.858;8.252;2023-04-19T06:04:45;100793.97;;;9.14;77.91
46583;BME280;32309;48.858;8.252;2023-04-19T06:06:45;100797.47;;;9.13;77.95
46583;BME280;32309;48.858;8.252;2023-04-19T06:08:46;100804.06;;;9.21;77.14
46583;BME280;32309;48.858;8.252;2023-04-19T06:10:46;100793.59;;;9.24;77.92
46583;BME280;32309;48.858;8.252;2023-04-19T06:12:48;100799.78;;;9.20;78.13
46583;BME280;32309;48.858;8.252;2023-04-19T06:14:48;100802.25;;;9.23;77.73
46583;BME280;32309;48.858;8.252;2023-04-19T06:16:48;100808.31;;;9.22;77.52
46583;BME280;32309;48.858;8.252;2023-04-19T06:18:49;100811.63;;;9.25;77.81
46583;BME280;32309;48.858;8.252;2023-04-19T06:20:50;100810.75;;;9.25;77.79
46583;BME280;32309;48.858;8.252;2023-04-19T06:22:52;100816.59;;;9.30;77.32
46583;BME280;32309;48.858;8.252;2023-04-19T06:24:52;100815.69;;;9.31;78.15
46583;BME280;32309;48.858;8.252;2023-04-19T06:26:52;100812.19;;;9.32;78.33
46583;BME280;32309;48.858;8.252;2023-04-19T06:28:52;100819.66;;;9.38;77.54
46583;BME280;32309;48.858;8.252;2023-04-19T06:30:53;100810.09;;;9.40;77.93
46583;BME280;32309;48.858;8.252;2023-04-19T06:32:53;100813.19;;;9.48;77.35
46583;BME280;32309;48.858;8.252;2023-04-19T06:34:53;100817.28;;;9.54;76.91
46583;BME280;32309;48.858;8.252;2023-04-19T06:36:53;100813.72;;;9.57;76.83
46583;BME280;32309;48.858;8.252;2023-04-19T06:38:54;100818.75;;;9.60;77.34
46583;BME280;32309;48.858;8.252;2023-04-19T06:40:54;100811.81;;;9.79;75.41
46583;BME280;32309;48.858;8.252;2023-04-19T06:42:54;100814.53;;;9.76;76.84
46583;BME280;32309;48.858;8.252;2023-04-19T06:44:55;100807.28;;;9.85;75.81
46583;BME280;32309;48.858;8.252;2023-04-19T06:46:56;100805.69;;;9.82;76.54
46583;BME280;32309;48.858;8.252;2023-04-19T06:48:56;100803.00;;;9.83;75.95
46583;BME280;32309;48.858;8.252;2023-04-19T06:50:56;100808.91;;;9.87;76.08
46583;BME280;32309;48.858;8.252;2023-04-19T06:52:57;100807.75;;;9.93;75.92
46583;BME280;32309;48.858;8.252;2023-04-19T06:54:57;100804.03;;;9.98;76.14
46583;BME280;32309;48.858;8.252;2023-04-19T06:56:57;100804.50;;;10.07;74.61
46583;BME280;32309;48.858;8.252;2023-04-19T06:58:57;100815.56;;;10.10;74.82
46583;BME280;32309;48.858;8.252;2023-04-19T07:00:58;100802.91;;;10.23;73.89
46583;BME280;32309;48.858;8.252;2023-04-19T07:02:59;100794.97;;;10.26;73.86
46583;BME280;32309;48.858;8.252;2023-04-19T07:05:00;100797.28;;;10.32;73.34
46583;BME280;32309;48.858;8.252;2023-04-19T07:07:00;100803.34;;;10.31;74.01
46583;BME280;32309;48.858;8.252;2023-04-19T07:09:01;100799.03;;;10.32;73.24
46583;BME280;32309;48.858;8.252;2023-04-19T07:11:03;100795.25;;;10.39;73.96
46583;BME280;32309;48.858;8.252;2023-04-19T07:13:04;100795.16;;;10.41;73.29
46583;BME280;32309;48.858;8.252;2023-04-19T07:15:04;100784.81;;;10.41;72.65
46583;BME280;32309;48.858;8.252;2023-04-19T07:17:05;100788.00;;;10.46;73.15
46583;BME280;32309;48.858;8.252;2023-04-19T07:19:05;100786.81;;;10.53;72.49
46583;BME280;32309;48.858;8.252;2023-04-19T07:21:05;100788.25;;;10.59;71.89
46583;BME280;32309;48.858;8.252;2023-04-19T07:23:06;100796.13;;;10.57;72.52
46583;BME280;32309;48.858;8.252;2023-04-19T07:25:06;100795.19;;;10.58;72.98
46583;BME280;32309;48.858;8.252;2023-04-19T07:27:08;100796.66;;;10.64;72.55
46583;BME280;32309;48.858;8.252;2023-04-19T07:29:08;100786.56;;;10.75;71.12
46583;BME280;32309;48.858;8.252;2023-04-19T07:31:13;100783.16;;;10.75;71.51
46583;BME280;32309;48.858;8.252;2023-04-19T07:33:16;100786.28;;;10.81;71.39
46583;BME280;32309;48.858;8.252;2023-04-19T07:35:16;100787.78;;;10.86;71.00
46583;BME280;32309;48.858;8.252;2023-04-19T07:37:18;100780.41;;;10.78;71.70
46583;BME280;32309;48.858;8.252;2023-04-19T07:39:18;100779.56;;;10.77;71.70
46583;BME280;32309;48.858;8.252;2023-04-19T07:41:19;100789.47;;;10.87;70.73
46583;BME280;32309;48.858;8.252;2023-04-19T07:43:19;100780.00;;;10.86;70.75
46583;BME280;32309;48.858;8.252;2023-04-19T07:45:19;100785.19;;;10.86;70.53
46583;BME280;32309;48.858;8.252;2023-04-19T07:47:19;100776.22;;;10.93;71.18
46583;BME280;32309;48.858;8.252;2023-04-19T07:49:20;100780.97;;;11.01;70.43
46583;BME280;32309;48.858;8.252;2023-04-19T07:51:20;100779.84;;;11.06;70.18
46583;BME280;32309;48.858;8.252;2023-04-19T07:53:22;100781.44;;;11.09;69.87
46583;BME280;32309;48.858;8.252;2023-04-19T07:55:23;100782.44;;;11.06;70.10
46583;BME280;32309;48.858;8.252;2023-04-19T07:57:23;100773.81;;;11.06;69.77
46583;BME280;32309;48.858;8.252;2023-04-19T07:59:23;100773.28;;;10.99;70.31
46583;BME280;32309;48.858;8.252;2023-04-19T08:01:23;100770.59;;;11.01;71.36
46583;BME280;32309;48.858;8.252;2023-04-19T08:03:24;100770.38;;;11.05;71.08
46583;BME280;32309;48.858;8.252;2023-04-19T08:05:24;100775.19;;;11.13;71.54
46583;BME280;32309;48.858;8.252;2023-04-19T08:07:25;100767.59;;;11.26;70.12
46583;BME280;32309;48.858;8.252;2023-04-19T08:09:26;100766.84;;;11.24;70.68
46583;BME280;32309;48.858;8.252;2023-04-19T08:11:26;100769.19;;;11.28;69.56
46583;BME280;32309;48.858;8.252;2023-04-19T08:13:27;100771.53;;;11.33;69.60
46583;BME280;32309;48.858;8.252;2023-04-19T08:15:27;100773.81;;;11.39;69.02
46583;BME280;32309;48.858;8.252;2023-04-19T08:17:28;100764.44;;;11.53;68.41
46583;BME280;32309;48.858;8.252;2023-04-19T08:19:28;100769.16;;;11.62;68.14
46583;BME280;32309;48.858;8.252;2023-04-19T08:21:29;100766.03;;;11.55;69.53
46583;BME280;32309;48.858;8.252;2023-04-19T08:23:30;100769.31;;;11.59;68.57
46583;BME280;32309;48.858;8.252;2023-04-19T08:25:30;100755.56;;;11.57;69.60
46583;BME280;32309;48.858;8.252;2023-04-19T08:27:31;100771.47;;;11.66;67.64
46583;BME280;32309;48.858;8.252;2023-04-19T08:29:31;100765.22;;;11.71;67.12
46583;BME280;32309;48.858;8.252;2023-04-19T08:31:32;100763.53;;;11.70;66.77
46583;BME280;32309;48.858;8.252;2023-04-19T08:33:32;100762.53;;;11.72;66.72
46583;BME280;32309;48.858;8.252;2023-04-19T08:35:33;100762.53;;;11.72;66.57
46583;BME280;32309;48.858;8.252;2023-04-19T08:37:35;100764.47;;;11.85;65.99
46583;BME280;32309;48.858;8.252;2023-04-19T08:39:35;100767.81;;;11.87;65.83
46583;BME280;32309;48.858;8.252;2023-04-19T08:41:35;100762.34;;;11.91;65.34
46583;BME280;32309;48.858;8.252;2023-04-19T08:43:36;100761.44;;;11.92;65.67
46583;BME280;32309;48.858;8.252;2023-04-19T08:45:36;100757.25;;;11.90;65.13
46583;BME280;32309;48.858;8.252;2023-04-19T08:47:37;100751.16;;;11.91;65.06
46583;BME280;32309;48.858;8.252;2023-04-19T08:49:38;100758.94;;;11.91;65.75
46583;BME280;32309;48.858;8.252;2023-04-19T08:51:38;100756.09;;;11.95;65.51
46583;BME280;32309;48.858;8.252;2023-04-19T08:53:39;100759.94;;;12.04;65.37
46583;BME280;32309;48.858;8.252;2023-04-19T08:55:41;100747.53;;;12.09;64.66
46583;BME280;32309;48.858;8.252;2023-04-19T08:57:44;100740.75;;;12.07;64.66
46583;BME280;32309;48.858;8.252;2023-04-19T08:59:45;100743.75;;;12.15;64.90
46583;BME280;32309;48.858;8.252;2023-04-19T09:01:49;100739.03;;;12.22;64.53
46583;BME280;32309;48.858;8.252;2023-04-19T09:03:50;100744.66;;;12.30;64.34
46583;BME280;32309;48.858;8.252;2023-04-19T09:05:50;100733.66;;;12.41;62.99
46583;BME280;32309;48.858;8.252;2023-04-19T09:07:50;100736.06;;;12.44;63.15
46583;BME280;32309;48.858;8.252;2023-04-19T09:10:07;100734.84;;;12.49;63.07
46583;BME280;32309;48.858;8.252;2023-04-19T09:12:17;100726.31;;;12.47;63.54
46583;BME280;32309;48.858;8.252;2023-04-19T09:14:18;100732.72;;;12.56;63.66
46583;BME280;32309;48.858;8.252;2023-04-19T09:16:23;100727.00;;;12.65;61.08
46583;BME280;32309;48.858;8.252;2023-04-19T09:18:23;100728.88;;;12.63;61.69
46583;BME280;32309;48.858;8.252;2023-04-19T09:20:34;100727.38;;;12.59;62.37
46583;BME280;32309;48.858;8.252;2023-04-19T09:22:35;100714.94;;;12.64;61.13
46583;BME280;32309;48.858;8.252;2023-04-19T09:24:36;100718.56;;;12.62;61.99
46583;BME280;32309;48.858;8.252;2023-04-19T09:26:37;100724.59;;;12.62;62.78
46583;BME280;32309;48.858;8.252;2023-04-19T09:28:37;100720.31;;;12.76;61.79
46583;BME280;32309;48.858;8.252;2023-04-19T09:30:38;100718.47;;;12.78;61.72
46583;BME280;32309;48.858;8.252;2023-04-19T09:32:45;100711.72;;;12.90;61.32
46583;BME280;32309;48.858;8.252;2023-04-19T09:34:50;100713.94;;;12.96;60.44
46583;BME280;32309;48.858;8.252;2023-04-19T09:36:51;100714.88;;;12.95;60.46
46583;BME280;32309;48.858;8.252;2023-04-19T09:38:51;100707.78;;;12.97;60.68
46583;BME280;32309;48.858;8.252;2023-04-19T09:40:51;100715.34;;;13.02;59.83
46583;BME280;32309;48.858;8.252;2023-04-19T09:42:52;100711.59;;;13.06;59.87
46583;BME280;32309;48.858;8.252;2023-04-19T09:44:57;100706.31;;;13.07;60.39
46583;BME280;32309;48.858;8.252;2023-04-19T09:46:58;100707.78;;;13.11;60.26
46583;BME280;32309;48.858;8.252;2023-04-19T09:51:18;100702.59;;;12.97;61.47
46583;BME280;32309;48.858;8.252;2023-04-19T09:53:19;100703.53;;;12.96;62.47
46583;BME280;32309;48.858;8.252;2023-04-19T09:55:20;100699.25;;;13.09;61.01
46583;BME280;32309;48.858;8.252;2023-04-19T09:57:21;100702.41;;;13.14;60.65
46583;BME280;32309;48.858;8.252;2023-04-19T09:59:22;100694.59;;;13.14;60.40
46583;BME280;32309;48.858;8.252;2023-04-19T10:01:22;100699.06;;;13.12;60.86
46583;BME280;32309;48.858;8.252;2023-04-19T10:03:25;100691.25;;;13.12;60.65
46583;BME280;32309;48.858;8.252;2023-04-19T10:05:28;100690.78;;;13.20;60.06
46583;BME280;32309;48.858;8.252;2023-04-19T10:07:29;100692.91;;;13.28;60.07
46583;BME280;32309;48.858;8.252;2023-04-19T10:09:30;100683.69;;;13.22;60.71
46583;BME280;32309;48.858;8.252;2023-04-19T10:11:31;100694.75;;;13.26;60.78
46583;BME280;32309;48.858;8.252;2023-04-19T10:13:42;100688.25;;;13.33;60.27
46583;BME280;32309;48.858;8.252;2023-04-19T10:15:46;100686.97;;;13.40;60.38
46583;BME280;32309;48.858;8.252;2023-04-19T10:17:47;100678.22;;;13.41;60.03
46583;BME280;32309;48.858;8.252;2023-04-19T10:19:48;100682.59;;;13.41;59.93
46583;BME280;32309;48.858;8.252;2023-04-19T10:21:54;100682.59;;;13.41;59.78
46583;BME280;32309;48.858;8.252;2023-04-19T10:23:55;100682.59;;;13.41;59.05
46583;BME280;32309;48.858;8.252;2023-04-19T10:25:56;100685.66;;;13.47;59.03
46583;BME280;32309;48.858;8.252;2023-04-19T10:27:58;100687.50;;;13.45;59.02
46583;BME280;32309;48.858;8.252;2023-04-19T10:30:01;100680.19;;;13.38;59.98
46583;BME280;32309;48.858;8.252;2023-04-19T10:32:04;100686.03;;;13.41;59.08
46583;BME280;32309;48.858;8.252;2023-04-19T10:34:05;100687.81;;;13.41;58.80
46583;BME280;32309;48.858;8.252;2023-04-19T10:36:09;100677.66;;;13.36;58.64
46583;BME280;32309;48.858;8.252;2023-04-19T10:38:13;100675.31;;;13.31;59.58
46583;BME280;32309;48.858;8.252;2023-04-19T10:40:38;100684.56;;;13.37;60.15